NSZ4103 ESSA-ENGM
Flight info
| Callsign | NSZ4103 |
|---|---|
| Flight time | 0h 48m |
| Altitude | 38000 |
| Route | ARS6G ARS N623 IBGAX DCT EBURI N623 ESEBA ESEBA4M |
| Aircraft | B738/M-SDE2E3FGHIRWXY/LB1 |
Departure
| Time | 2026-05-04 05:37 |
|---|---|
| Airport | Stockholm-Arlanda Airport (ESSA) |
Arrival
| Time | 2026-05-04 06:25 |
|---|---|
| Airport | Oslo-Gardermoen International Airport (ENGM) |
| Time | Latitude | Longitude | Altitude | Speed | Heading |
|---|---|---|---|---|---|
| 2026-05-04 05:14 | 59.65199 | 17.93017 | 110 ft | 0 kts | 70° |
| 2026-05-04 05:25 | 59.65196 | 17.93004 | 111 ft | 4 kts | 70° |
| 2026-05-04 05:26 | 59.65190 | 17.92966 | 111 ft | 4 kts | 92° |
| 2026-05-04 05:26 | 59.65199 | 17.92920 | 111 ft | 4 kts | 122° |
| 2026-05-04 05:26 | 59.65208 | 17.92881 | 110 ft | 4 kts | 109° |
| 2026-05-04 05:26 | 59.65217 | 17.92833 | 111 ft | 2 kts | 109° |
| 2026-05-04 05:27 | 59.65224 | 17.92791 | 111 ft | 4 kts | 109° |
| 2026-05-04 05:28 | 59.65234 | 17.92734 | 111 ft | 0 kts | 109° |
| 2026-05-04 05:32 | 59.65236 | 17.92763 | 111 ft | 6 kts | 68° |
| 2026-05-04 05:32 | 59.65291 | 17.92779 | 111 ft | 10 kts | 333° |
| 2026-05-04 05:32 | 59.65355 | 17.92711 | 111 ft | 10 kts | 332° |
| 2026-05-04 05:33 | 59.65505 | 17.92550 | 105 ft | 16 kts | 331° |
| 2026-05-04 05:33 | 59.65615 | 17.92485 | 103 ft | 17 kts | 346° |
| 2026-05-04 05:33 | 59.65727 | 17.92430 | 104 ft | 16 kts | 349° |
| 2026-05-04 05:33 | 59.65837 | 17.92450 | 105 ft | 16 kts | 10° |
| 2026-05-04 05:34 | 59.65949 | 17.92488 | 106 ft | 19 kts | 9° |
| 2026-05-04 05:34 | 59.66099 | 17.92543 | 110 ft | 22 kts | 10° |
| 2026-05-04 05:34 | 59.66249 | 17.92597 | 115 ft | 22 kts | 10° |
| 2026-05-04 05:34 | 59.66396 | 17.92649 | 116 ft | 21 kts | 9° |
| 2026-05-04 05:35 | 59.66514 | 17.92620 | 123 ft | 13 kts | 343° |
| 2026-05-04 05:35 | 59.66583 | 17.92570 | 124 ft | 10 kts | 333° |
| 2026-05-04 05:35 | 59.66614 | 17.92453 | 121 ft | 11 kts | 267° |
| 2026-05-04 05:35 | 59.66564 | 17.92351 | 122 ft | 11 kts | 192° |
| 2026-05-04 05:36 | 59.66487 | 17.92321 | 118 ft | 12 kts | 191° |
| 2026-05-04 05:36 | 59.66375 | 17.92281 | 118 ft | 28 kts | 189° |
| 2026-05-04 05:36 | 59.65904 | 17.92111 | 111 ft | 109 kts | 191° |
| 2026-05-04 05:36 | 59.64951 | 17.91760 | 246 ft | 158 kts | 187° |
| 2026-05-04 05:37 | 59.63884 | 17.91390 | 1167 ft | 149 kts | 194° |
| 2026-05-04 05:37 | 59.62860 | 17.90856 | 1891 ft | 163 kts | 192° |
| 2026-05-04 05:37 | 59.61646 | 17.90249 | 2204 ft | 198 kts | 207° |
| 2026-05-04 05:38 | 59.59909 | 17.85506 | 3361 ft | 224 kts | 237° |
| 2026-05-04 05:38 | 59.59077 | 17.82931 | 4303 ft | 222 kts | 237° |
| 2026-05-04 05:38 | 59.58291 | 17.80267 | 5059 ft | 233 kts | 242° |
| 2026-05-04 05:38 | 59.57522 | 17.77279 | 5559 ft | 251 kts | 243° |
| 2026-05-04 05:39 | 59.56837 | 17.74085 | 6452 ft | 254 kts | 256° |
| 2026-05-04 05:39 | 59.56787 | 17.67095 | 8300 ft | 262 kts | 270° |
| 2026-05-04 05:39 | 59.56877 | 17.63478 | 9233 ft | 266 kts | 270° |
| 2026-05-04 05:40 | 59.57058 | 17.55949 | 10527 ft | 296 kts | 270° |
| 2026-05-04 05:40 | 59.57150 | 17.51769 | 11094 ft | 311 kts | 270° |
| 2026-05-04 05:40 | 59.57211 | 17.48870 | 11670 ft | 314 kts | 270° |
| 2026-05-04 05:41 | 59.57299 | 17.44573 | 12713 ft | 314 kts | 270° |
| 2026-05-04 05:41 | 59.57386 | 17.40258 | 13689 ft | 316 kts | 269° |
| 2026-05-04 05:41 | 59.57472 | 17.35896 | 14612 ft | 320 kts | 269° |
| 2026-05-04 05:41 | 59.57556 | 17.31491 | 15539 ft | 323 kts | 269° |
| 2026-05-04 05:42 | 59.57639 | 17.27054 | 16495 ft | 325 kts | 268° |
| 2026-05-04 05:42 | 59.57720 | 17.22584 | 17401 ft | 327 kts | 268° |
| 2026-05-04 05:42 | 59.57800 | 17.18080 | 18259 ft | 330 kts | 268° |
| 2026-05-04 05:42 | 59.57879 | 17.13535 | 19072 ft | 333 kts | 268° |
| 2026-05-04 05:43 | 59.57956 | 17.08932 | 19831 ft | 338 kts | 268° |
| 2026-05-04 05:43 | 59.58033 | 17.04265 | 20569 ft | 342 kts | 267° |
| 2026-05-04 05:43 | 59.58109 | 16.99545 | 21298 ft | 346 kts | 267° |
| 2026-05-04 05:45 | 59.58631 | 16.65181 | 25782 ft | 369 kts | 268° |
| 2026-05-04 05:45 | 59.58985 | 16.60126 | 26397 ft | 375 kts | 275° |
| 2026-05-04 05:47 | 59.62666 | 16.24829 | 30821 ft | 364 kts | 274° |
| 2026-05-04 05:47 | 59.63156 | 16.19944 | 31433 ft | 362 kts | 274° |
| 2026-05-04 05:47 | 59.63698 | 16.15104 | 32017 ft | 360 kts | 275° |
| 2026-05-04 05:48 | 59.64261 | 16.10295 | 32577 ft | 358 kts | 275° |
| 2026-05-04 05:48 | 59.64823 | 16.05526 | 33129 ft | 355 kts | 275° |
| 2026-05-04 05:48 | 59.65377 | 16.00786 | 33690 ft | 352 kts | 275° |
| 2026-05-04 05:48 | 59.65921 | 15.96081 | 34194 ft | 350 kts | 275° |
| 2026-05-04 05:49 | 59.66457 | 15.91394 | 34620 ft | 350 kts | 275° |
| 2026-05-04 05:49 | 59.66991 | 15.86666 | 34902 ft | 354 kts | 275° |
| 2026-05-04 05:49 | 59.67528 | 15.81895 | 35182 ft | 357 kts | 276° |
| 2026-05-04 05:49 | 59.68070 | 15.77069 | 35450 ft | 361 kts | 276° |
| 2026-05-04 05:51 | 59.71873 | 15.42798 | 35760 ft | 361 kts | 276° |
| 2026-05-04 05:51 | 59.72403 | 15.37928 | 35754 ft | 362 kts | 276° |
| 2026-05-04 05:52 | 59.73461 | 15.28146 | 35751 ft | 364 kts | 276° |
| 2026-05-04 05:52 | 59.74516 | 15.18315 | 35747 ft | 365 kts | 276° |
| 2026-05-04 05:54 | 59.78691 | 14.78736 | 35726 ft | 367 kts | 275° |
| 2026-05-04 05:55 | 59.79718 | 14.68818 | 35729 ft | 367 kts | 275° |
| 2026-05-04 05:55 | 59.80228 | 14.63856 | 35607 ft | 368 kts | 275° |
| 2026-05-04 05:55 | 59.80738 | 14.58871 | 35201 ft | 366 kts | 275° |
| 2026-05-04 05:56 | 59.81238 | 14.53989 | 34711 ft | 364 kts | 275° |
| 2026-05-04 05:56 | 59.81740 | 14.49075 | 34158 ft | 363 kts | 274° |
| 2026-05-04 05:56 | 59.82238 | 14.44167 | 33634 ft | 362 kts | 274° |
| 2026-05-04 05:56 | 59.82730 | 14.39300 | 33227 ft | 357 kts | 274° |
| 2026-05-04 05:57 | 59.83216 | 14.34483 | 32804 ft | 353 kts | 274° |
| 2026-05-04 05:57 | 59.83695 | 14.29719 | 32388 ft | 350 kts | 273° |
| 2026-05-04 05:57 | 59.84168 | 14.24999 | 31975 ft | 346 kts | 273° |
| 2026-05-04 05:57 | 59.84633 | 14.20328 | 31570 ft | 342 kts | 273° |
| 2026-05-04 05:58 | 59.85091 | 14.15703 | 31176 ft | 339 kts | 272° |
| 2026-05-04 05:58 | 59.85543 | 14.11119 | 30779 ft | 336 kts | 272° |
| 2026-05-04 05:58 | 59.85992 | 14.06569 | 30390 ft | 334 kts | 271° |
| 2026-05-04 05:58 | 59.86434 | 14.02064 | 30000 ft | 331 kts | 271° |
| 2026-05-04 05:59 | 59.86871 | 13.97592 | 29601 ft | 328 kts | 271° |
| 2026-05-04 05:59 | 59.87302 | 13.93164 | 29215 ft | 325 kts | 271° |
| 2026-05-04 05:59 | 59.87728 | 13.88765 | 28811 ft | 322 kts | 271° |
| 2026-05-04 05:59 | 59.88148 | 13.84411 | 28412 ft | 319 kts | 271° |
| 2026-05-04 06:00 | 59.88564 | 13.80088 | 28010 ft | 316 kts | 271° |
| 2026-05-04 06:00 | 59.88974 | 13.75805 | 27616 ft | 314 kts | 272° |
| 2026-05-04 06:00 | 59.89381 | 13.71545 | 27222 ft | 312 kts | 272° |
| 2026-05-04 06:00 | 59.89783 | 13.67316 | 26829 ft | 310 kts | 272° |
| 2026-05-04 06:01 | 59.90181 | 13.63112 | 26432 ft | 307 kts | 272° |
| 2026-05-04 06:01 | 59.90569 | 13.59001 | 26052 ft | 305 kts | 272° |
| 2026-05-04 06:03 | 59.93236 | 13.30354 | 23369 ft | 296 kts | 273° |
| 2026-05-04 06:03 | 59.93607 | 13.26325 | 22997 ft | 295 kts | 274° |
| 2026-05-04 06:05 | 59.96120 | 12.98555 | 20354 ft | 287 kts | 274° |
| 2026-05-04 06:05 | 59.96812 | 12.90795 | 19624 ft | 286 kts | 275° |
| 2026-05-04 06:05 | 59.97159 | 12.86893 | 19250 ft | 284 kts | 274° |
| 2026-05-04 06:06 | 59.97494 | 12.82996 | 18879 ft | 284 kts | 275° |
| 2026-05-04 06:06 | 59.97841 | 12.79129 | 18514 ft | 283 kts | 275° |
| 2026-05-04 06:06 | 59.98183 | 12.75268 | 18147 ft | 282 kts | 275° |
| 2026-05-04 06:06 | 59.98518 | 12.71411 | 17758 ft | 280 kts | 275° |
| 2026-05-04 06:07 | 59.98924 | 12.67530 | 17127 ft | 292 kts | 284° |
| 2026-05-04 06:07 | 59.99908 | 12.63905 | 16660 ft | 302 kts | 300° |
| 2026-05-04 06:07 | 60.01180 | 12.60574 | 16269 ft | 301 kts | 302° |
| 2026-05-04 06:07 | 60.02458 | 12.57339 | 15888 ft | 300 kts | 302° |
| 2026-05-04 06:08 | 60.03749 | 12.54083 | 15516 ft | 298 kts | 302° |
| 2026-05-04 06:08 | 60.05029 | 12.50838 | 15132 ft | 296 kts | 302° |
| 2026-05-04 06:08 | 60.06294 | 12.47609 | 14766 ft | 294 kts | 302° |
| 2026-05-04 06:08 | 60.07549 | 12.44390 | 14401 ft | 292 kts | 302° |
| 2026-05-04 06:09 | 60.08789 | 12.41191 | 14048 ft | 290 kts | 302° |
| 2026-05-04 06:09 | 60.10020 | 12.38009 | 13683 ft | 288 kts | 302° |
| 2026-05-04 06:11 | 60.18362 | 12.16271 | 11213 ft | 276 kts | 303° |
| 2026-05-04 06:11 | 60.19525 | 12.13224 | 10864 ft | 273 kts | 303° |
| 2026-05-04 06:13 | 60.25183 | 11.90572 | 9021 ft | 263 kts | 291° |
| 2026-05-04 06:14 | 60.29741 | 11.70308 | 7063 ft | 262 kts | 292° |
| 2026-05-04 06:14 | 60.30489 | 11.66975 | 6760 ft | 260 kts | 292° |
| 2026-05-04 06:15 | 60.31223 | 11.63712 | 6627 ft | 251 kts | 292° |
| 2026-05-04 06:15 | 60.31697 | 11.60389 | 6371 ft | 244 kts | 275° |
| 2026-05-04 06:15 | 60.31860 | 11.57046 | 6260 ft | 234 kts | 274° |
| 2026-05-04 06:15 | 60.32022 | 11.53840 | 6187 ft | 226 kts | 275° |
| 2026-05-04 06:16 | 60.32189 | 11.50740 | 6073 ft | 219 kts | 275° |
| 2026-05-04 06:16 | 60.32360 | 11.47748 | 5967 ft | 211 kts | 275° |
| 2026-05-04 06:16 | 60.32529 | 11.44868 | 5880 ft | 203 kts | 275° |
| 2026-05-04 06:16 | 60.32694 | 11.42082 | 5749 ft | 197 kts | 275° |
| 2026-05-04 06:17 | 60.32856 | 11.39386 | 5676 ft | 187 kts | 276° |
| 2026-05-04 06:17 | 60.33008 | 11.36889 | 5562 ft | 178 kts | 275° |
| 2026-05-04 06:17 | 60.33159 | 11.34376 | 5192 ft | 180 kts | 275° |
| 2026-05-04 06:17 | 60.33313 | 11.31836 | 4742 ft | 184 kts | 275° |
| 2026-05-04 06:18 | 60.33467 | 11.29284 | 4307 ft | 186 kts | 276° |
| 2026-05-04 06:18 | 60.33625 | 11.26681 | 3774 ft | 187 kts | 276° |
| 2026-05-04 06:18 | 60.33775 | 11.24198 | 3584 ft | 175 kts | 275° |
| 2026-05-04 06:20 | 60.27821 | 11.16705 | 2290 ft | 155 kts | 195° |
| 2026-05-04 06:20 | 60.26782 | 11.16101 | 2062 ft | 156 kts | 195° |
| 2026-05-04 06:21 | 60.22914 | 11.13864 | 1299 ft | 139 kts | 195° |
| 2026-05-04 06:21 | 60.21985 | 11.13327 | 1107 ft | 139 kts | 196° |
| 2026-05-04 06:22 | 60.21059 | 11.12784 | 911 ft | 139 kts | 197° |
| 2026-05-04 06:22 | 60.20133 | 11.12259 | 744 ft | 139 kts | 196° |
| 2026-05-04 06:25 | 60.19157 | 11.11090 | 682 ft | 11 kts | 330° |
| 2026-05-04 06:25 | 60.19190 | 11.10953 | 684 ft | 11 kts | 285° |
| 2026-05-04 06:26 | 60.19210 | 11.10805 | 679 ft | 11 kts | 286° |
| 2026-05-04 06:26 | 60.19231 | 11.10657 | 684 ft | 11 kts | 285° |
| 2026-05-04 06:26 | 60.19253 | 11.10513 | 684 ft | 11 kts | 287° |
| 2026-05-04 06:26 | 60.19272 | 11.10373 | 684 ft | 10 kts | 285° |
| 2026-05-04 06:27 | 60.19343 | 11.10267 | 684 ft | 0 kts | 16° |